Time;durP1;ratioP1;P1;durP2;ratioP2;P2;SDS_P1;SDS_P2;PMS_P1;PMS_P2;Temp;Humidity;BMP_temperature;BMP_pressure;BME280_temperature;BME280_humidity;BME280_pressure;Samples;Min_cycle;Max_cycle;Signal;HPM_P1;HPM_P2
2021/12/12 00:00:48;;;;;;;40.92;21.08;;;8.30;92.00;;;;;;5056351;28;20037;-47
2021/12/12 00:03:32;;;;;;;42.65;20.40;;;8.30;91.90;;;;;;5056756;28;20033;-46
2021/12/12 00:05:59;;;;;;;37.05;21.15;;;8.30;91.90;;;;;;5056733;28;20044;-46
2021/12/12 00:08:25;;;;;;;41.08;19.92;;;8.20;91.90;;;;;;5056209;28;20028;-44
2021/12/12 00:10:56;;;;;;;42.80;21.67;;;8.20;91.90;;;;;;5056664;28;20041;-36
2021/12/12 00:13:30;;;;;;;35.72;20.05;;;8.20;91.90;;;;;;5056223;28;20029;-35
2021/12/12 00:15:55;;;;;;;34.97;19.00;;;8.20;91.90;;;;;;5056324;28;20037;-36
2021/12/12 00:18:21;;;;;;;35.63;20.02;;;8.20;92.00;;;;;;5056150;28;20017;-34
2021/12/12 00:20:48;;;;;;;35.00;19.17;;;8.20;92.10;;;;;;5055773;28;20061;-44
2021/12/12 00:23:15;;;;;;;36.22;19.15;;;8.20;92.00;;;;;;5056218;28;20031;-34
2021/12/12 00:25:46;;;;;;;42.13;21.00;;;8.20;92.00;;;;;;5055706;28;20045;-33
2021/12/12 00:28:15;;;;;;;39.17;20.33;;;8.20;92.10;;;;;;5056113;28;20021;-36
2021/12/12 00:30:43;;;;;;;38.40;18.55;;;8.20;92.10;;;;;;5056076;28;20091;-45
2021/12/12 00:33:09;;;;;;;39.83;20.70;;;8.30;92.10;;;;;;5055937;28;20039;-34
2021/12/12 00:35:35;;;;;;;38.65;19.67;;;8.30;92.00;;;;;;5056063;28;20033;-43
2021/12/12 00:38:06;;;;;;;38.90;19.65;;;8.20;92.00;;;;;;5055896;28;20083;-44
2021/12/12 00:40:35;;;;;;;38.65;20.45;;;8.30;91.90;;;;;;5056049;28;20055;-43
2021/12/12 00:43:12;;;;;;;41.72;20.65;;;8.30;91.90;;;;;;5055905;28;20075;-43
2021/12/12 00:45:38;;;;;;;51.95;23.50;;;8.30;91.80;;;;;;5055993;28;20044;-35
2021/12/12 00:48:04;;;;;;;47.47;22.90;;;8.30;91.60;;;;;;5055798;28;20421;-33
2021/12/12 00:50:35;;;;;;;45.15;22.27;;;8.30;91.60;;;;;;5055446;28;20060;-45
2021/12/12 00:53:03;;;;;;;49.22;21.85;;;8.30;91.70;;;;;;5055649;28;20028;-44
2021/12/12 00:55:29;;;;;;;44.42;21.15;;;8.30;91.30;;;;;;5055663;28;20041;-33
2021/12/12 00:57:55;;;;;;;46.53;21.67;;;8.30;91.30;;;;;;5055661;28;20100;-34
2021/12/12 01:00:30;;;;;;;46.35;22.75;;;8.20;91.30;;;;;;5055727;28;20127;-44
2021/12/12 01:02:57;;;;;;;49.13;24.48;;;8.20;91.30;;;;;;5055894;28;20457;-45
2021/12/12 01:05:24;;;;;;;45.92;23.00;;;8.20;91.40;;;;;;5055741;28;20037;-44
2021/12/12 01:07:51;;;;;;;46.92;23.27;;;8.20;91.40;;;;;;5055758;28;20025;-34
2021/12/12 01:10:31;;;;;;;52.17;24.35;;;8.20;91.30;;;;;;5055536;28;20037;-44
2021/12/12 01:12:59;;;;;;;49.67;23.73;;;8.20;91.30;;;;;;5055823;28;20427;-33
2021/12/12 01:15:31;;;;;;;51.42;24.13;;;8.10;91.20;;;;;;5055543;28;20044;-44
2021/12/12 01:18:00;;;;;;;51.67;25.05;;;8.10;91.20;;;;;;5055435;28;20029;-33
2021/12/12 01:20:28;;;;;;;51.42;24.10;;;8.10;91.30;;;;;;5055558;28;20031;-34
2021/12/12 01:22:58;;;;;;;53.50;26.05;;;8.10;91.30;;;;;;5055644;28;20392;-34
2021/12/12 01:25:33;;;;;;;50.10;23.20;;;8.10;91.30;;;;;;5055706;28;20432;-33
2021/12/12 01:28:00;;;;;;;55.30;24.52;;;8.10;91.30;;;;;;5058038;28;20359;-33
2021/12/12 01:30:27;;;;;;;52.97;25.15;;;8.00;91.30;;;;;;5059254;28;20091;-45
2021/12/12 01:32:54;;;;;;;49.08;24.20;;;8.10;91.30;;;;;;5059403;28;20158;-44
2021/12/12 01:35:22;;;;;;;48.78;25.80;;;8.00;91.20;;;;;;5059221;28;20033;-31
2021/12/12 01:40:45;;;;;;;46.30;24.98;;;8.00;91.10;;;;;;5059517;28;20040;-44
2021/12/12 01:43:39;;;;;;;52.72;27.13;;;8.00;91.10;;;;;;5059319;28;20108;-45
2021/12/12 01:46:12;;;;;;;48.88;25.30;;;8.00;91.10;;;;;;5059100;28;20375;-33
2021/12/12 01:48:53;;;;;;;48.67;26.92;;;7.90;91.20;;;;;;5058436;28;20110;-35
2021/12/12 01:51:19;;;;;;;51.55;25.80;;;7.90;91.30;;;;;;5058804;28;20052;-34
2021/12/12 01:53:49;;;;;;;53.83;26.67;;;7.90;91.40;;;;;;5058621;28;20029;-33
2021/12/12 01:56:21;;;;;;;52.05;27.38;;;7.90;91.30;;;;;;5058890;28;20029;-44
2021/12/12 01:58:52;;;;;;;52.60;26.15;;;8.00;91.40;;;;;;5058296;28;20418;-45
2021/12/12 02:01:24;;;;;;;50.95;25.83;;;8.00;91.30;;;;;;5059134;28;20418;-44
2021/12/12 02:04:01;;;;;;;51.88;24.73;;;8.00;91.20;;;;;;5058446;28;20520;-33
2021/12/12 02:06:28;;;;;;;44.22;23.35;;;8.00;91.20;;;;;;5058960;28;20377;-34
2021/12/12 02:08:56;;;;;;;46.67;22.58;;;7.90;91.20;;;;;;5058554;28;20071;-36
2021/12/12 02:11:27;;;;;;;39.00;20.25;;;7.90;91.20;;;;;;5058845;28;20028;-34
2021/12/12 02:13:57;;;;;;;41.67;21.45;;;8.00;91.20;;;;;;5058239;28;20411;-42
2021/12/12 02:16:25;;;;;;;44.65;20.95;;;8.00;91.10;;;;;;5058651;28;20336;-44
2021/12/12 02:18:55;;;;;;;42.63;21.13;;;7.90;91.20;;;;;;5056919;28;20021;-34
2021/12/12 02:21:34;;;;;;;37.20;19.10;;;7.90;91.00;;;;;;5058344;28;20056;-43
2021/12/12 02:35:17;;;;;;;46.00;21.55;;;7.90;91.00;;;;;;5057519;28;20445;-44
2021/12/12 02:37:43;;;;;;;42.50;21.55;;;7.90;91.00;;;;;;5058079;28;20040;-33
2021/12/12 02:40:14;;;;;;;42.40;22.40;;;7.90;91.00;;;;;;5058099;28;20040;-34
2021/12/12 02:42:40;;;;;;;42.45;20.45;;;7.90;91.00;;;;;;5058236;28;20098;-44
2021/12/12 02:45:08;;;;;;;41.40;21.70;;;7.90;91.00;;;;;;5057916;28;20029;-44
2021/12/12 02:47:35;;;;;;;42.35;21.10;;;7.90;90.80;;;;;;5057981;28;20420;-44
2021/12/12 02:50:18;;;;;;;37.67;19.33;;;7.90;90.80;;;;;;5057667;28;20052;-34
2021/12/12 02:52:51;;;;;;;34.97;19.02;;;7.90;90.80;;;;;;5057933;28;20077;-44
2021/12/12 02:55:25;;;;;;;43.03;18.48;;;7.90;90.80;;;;;;5057773;28;20029;-44
2021/12/12 02:57:54;;;;;;;39.78;19.58;;;7.90;90.70;;;;;;5058071;28;20429;-44
2021/12/12 03:00:23;;;;;;;36.33;18.30;;;7.90;90.60;;;;;;5057792;28;20040;-44
2021/12/12 03:02:57;;;;;;;40.33;18.60;;;7.80;90.60;;;;;;5057884;28;20299;-33
2021/12/12 03:05:25;;;;;;;39.03;19.23;;;7.80;90.60;;;;;;5057510;28;20302;-33
2021/12/12 03:07:51;;;;;;;33.42;17.83;;;7.80;90.60;;;;;;5057752;28;20040;-33
2021/12/12 03:10:24;;;;;;;38.05;19.17;;;7.80;90.60;;;;;;5057435;28;20341;-34
2021/12/12 03:12:50;;;;;;;32.08;17.45;;;7.70;90.60;;;;;;5057192;28;20025;-34
2021/12/12 03:15:23;;;;;;;37.60;19.08;;;7.70;90.60;;;;;;5057389;28;20309;-34
2021/12/12 03:17:51;;;;;;;36.25;19.05;;;7.70;90.50;;;;;;5057252;28;20021;-44
2021/12/12 03:20:25;;;;;;;40.00;20.05;;;7.70;90.60;;;;;;5056934;28;20033;-44
2021/12/12 03:22:58;;;;;;;37.10;18.92;;;7.60;90.50;;;;;;5057211;28;20052;-44
2021/12/12 03:25:24;;;;;;;36.80;18.15;;;7.60;90.50;;;;;;5057188;28;20384;-41
2021/12/12 03:27:50;;;;;;;42.65;20.10;;;7.60;90.60;;;;;;5057164;28;20025;-33
2021/12/12 03:30:17;;;;;;;36.75;19.48;;;7.60;90.60;;;;;;5056632;28;20033;-43
2021/12/12 03:32:43;;;;;;;37.53;18.30;;;7.60;90.60;;;;;;5056874;28;20024;-44
2021/12/12 03:35:09;;;;;;;32.22;17.75;;;7.50;90.60;;;;;;5056864;28;20029;-34
2021/12/12 03:37:35;;;;;;;33.38;18.05;;;7.50;90.60;;;;;;5056974;28;20317;-34
2021/12/12 03:40:09;;;;;;;30.35;16.50;;;7.50;90.60;;;;;;5056834;28;20029;-44
2021/12/12 03:42:35;;;;;;;34.90;17.70;;;7.50;90.60;;;;;;5056836;28;20413;-34
2021/12/12 03:45:02;;;;;;;28.67;16.08;;;7.50;90.70;;;;;;5056779;28;20116;-45
2021/12/12 03:47:36;;;;;;;31.33;16.67;;;7.50;90.70;;;;;;5056896;28;20029;-33
2021/12/12 03:50:07;;;;;;;35.72;17.92;;;7.50;90.70;;;;;;5055492;28;20053;-34
2021/12/12 03:52:33;;;;;;;33.35;17.40;;;7.50;90.70;;;;;;5056388;28;20069;-34
2021/12/12 03:55:00;;;;;;;37.40;18.30;;;7.50;90.60;;;;;;5056365;28;20041;-44
2021/12/12 03:57:28;;;;;;;34.60;18.10;;;7.50;90.60;;;;;;5056793;28;20436;-45
2021/12/12 03:59:54;;;;;;;33.35;17.02;;;7.50;90.60;;;;;;5056502;28;20363;-44
2021/12/12 04:02:20;;;;;;;36.95;17.88;;;7.50;90.60;;;;;;5056466;28;20025;-37
2021/12/12 04:04:48;;;;;;;36.35;18.10;;;7.50;90.60;;;;;;5056637;28;20082;-34
2021/12/12 04:07:20;;;;;;;34.42;17.17;;;7.50;90.50;;;;;;5056537;28;20036;-44
2021/12/12 04:09:47;;;;;;;32.10;14.90;;;7.50;90.50;;;;;;5056443;28;20043;-35
2021/12/12 04:12:15;;;;;;;24.77;12.70;;;7.50;90.40;;;;;;5056344;28;20031;-43
2021/12/12 04:14:41;;;;;;;22.20;12.18;;;7.50;90.30;;;;;;5055800;28;20046;-45
2021/12/12 04:17:13;;;;;;;33.65;13.73;;;7.40;90.20;;;;;;5055954;28;20099;-34
2021/12/12 04:19:40;;;;;;;25.38;12.45;;;7.40;90.10;;;;;;5056027;28;20025;-34
2021/12/12 04:22:06;;;;;;;28.92;11.98;;;7.40;90.10;;;;;;5056080;28;20032;-34
2021/12/12 04:24:35;;;;;;;25.85;12.20;;;7.30;90.00;;;;;;5055879;28;20060;-44
2021/12/12 04:27:03;;;;;;;23.33;12.48;;;7.30;90.00;;;;;;5055920;28;20040;-45
2021/12/12 04:29:32;;;;;;;22.48;11.95;;;7.20;90.10;;;;;;5055595;28;20033;-34
2021/12/12 04:32:15;;;;;;;31.23;11.65;;;7.20;90.10;;;;;;5055960;28;20037;-34
2021/12/12 04:34:46;;;;;;;20.80;10.32;;;7.20;90.20;;;;;;5055434;28;20040;-34
2021/12/12 04:37:12;;;;;;;;;;;7.10;90.20;;;;;;5056342;28;20036;-45
2021/12/12 04:39:41;;;;;;;21.50;11.45;;;7.10;90.10;;;;;;5055443;28;20343;-45
2021/12/12 04:42:17;;;;;;;16.70;10.10;;;7.00;90.10;;;;;;5055775;28;20349;-45
2021/12/12 04:44:47;;;;;;;25.13;11.18;;;7.00;90.10;;;;;;5055562;28;20110;-44
2021/12/12 04:50:35;;;;;;;17.08;9.02;;;6.90;90.20;;;;;;5055397;28;20358;-45
2021/12/12 04:53:11;;;;;;;14.02;8.82;;;6.90;90.20;;;;;;5055724;28;20049;-45
2021/12/12 04:55:55;;;;;;;27.35;9.60;;;6.80;90.20;;;;;;5055762;28;20116;-39
2021/12/12 04:58:38;;;;;;;16.50;9.88;;;6.80;90.10;;;;;;5056031;28;20348;-36
2021/12/12 05:01:31;;;;;;;17.55;9.23;;;6.80;90.00;;;;;;5055927;28;20033;-44
2021/12/12 05:04:01;;;;;;;17.75;9.82;;;6.80;90.10;;;;;;5059375;28;20120;-44
2021/12/12 05:06:56;;;;;;;16.42;9.80;;;6.70;90.20;;;;;;5059813;28;20025;-44
2021/12/12 05:09:33;;;;;;;14.30;8.50;;;6.70;90.10;;;;;;5058614;28;20425;-33
2021/12/12 05:12:01;;;;;;;12.02;7.80;;;6.70;90.20;;;;;;5059630;28;20053;-44
2021/12/12 05:14:33;;;;;;;17.30;8.88;;;6.60;90.30;;;;;;5059096;28;20033;-44
2021/12/12 05:17:11;;;;;;;12.20;7.85;;;6.60;90.30;;;;;;5059487;28;20025;-33
2021/12/12 05:19:41;;;;;;;13.90;8.05;;;6.60;90.20;;;;;;5059421;28;20108;-44
2021/12/12 05:22:15;;;;;;;15.63;8.60;;;6.50;90.20;;;;;;5059667;28;20025;-33
2021/12/12 05:24:42;;;;;;;18.55;9.15;;;6.50;90.20;;;;;;5059187;28;20037;-43
2021/12/12 05:27:30;;;;;;;18.77;9.45;;;6.50;90.10;;;;;;5059339;28;20035;-44
2021/12/12 05:30:00;;;;;;;13.57;8.98;;;6.50;90.10;;;;;;5059162;28;20036;-43
2021/12/12 05:32:28;;;;;;;15.35;8.70;;;6.40;90.20;;;;;;5059392;28;20047;-44
2021/12/12 05:34:54;;;;;;;19.52;9.43;;;6.40;90.20;;;;;;5058999;28;20037;-33
2021/12/12 05:37:21;;;;;;;20.75;11.35;;;6.40;90.20;;;;;;5059621;28;20028;-33
2021/12/12 05:39:48;;;;;;;29.67;13.80;;;6.30;90.20;;;;;;5059191;28;20033;-34
2021/12/12 05:42:15;;;;;;;36.90;15.90;;;6.30;90.20;;;;;;5059296;28;20418;-33
2021/12/12 05:44:41;;;;;;;32.92;15.77;;;6.30;90.30;;;;;;5058934;28;20037;-35
2021/12/12 05:47:08;;;;;;;30.05;15.77;;;6.20;90.60;;;;;;5059061;28;20020;-34
2021/12/12 05:49:38;;;;;;;31.52;15.30;;;6.20;90.40;;;;;;5058634;28;20072;-44
2021/12/12 05:52:10;;;;;;;29.90;14.30;;;6.20;90.50;;;;;;5058864;28;20033;-32
2021/12/12 05:54:36;;;;;;;29.80;14.32;;;6.20;90.50;;;;;;5058561;28;20351;-44
2021/12/12 05:57:02;;;;;;;28.75;14.32;;;6.20;90.50;;;;;;5058787;28;20013;-33
2021/12/12 05:59:28;;;;;;;40.70;16.13;;;6.20;90.40;;;;;;5058703;28;20314;-33
2021/12/12 06:01:57;;;;;;;35.13;14.00;;;6.20;90.40;;;;;;5058608;28;20356;-44
2021/12/12 06:04:23;;;;;;;46.97;15.15;;;6.10;90.40;;;;;;5058328;28;20440;-33
2021/12/12 06:06:49;;;;;;;38.67;12.35;;;6.10;90.40;;;;;;5058216;28;20025;-44
2021/12/12 06:09:17;;;;;;;37.20;12.90;;;6.10;90.40;;;;;;5058489;28;20037;-34
2021/12/12 06:11:46;;;;;;;23.38;10.95;;;6.00;90.40;;;;;;5058488;28;20036;-34
2021/12/12 06:14:13;;;;;;;37.80;11.65;;;6.00;90.50;;;;;;5057207;28;20045;-34
2021/12/12 06:16:40;;;;;;;26.23;12.18;;;6.00;90.50;;;;;;5058521;28;20025;-44
2021/12/12 06:19:14;;;;;;;41.30;13.85;;;6.00;90.60;;;;;;5058127;28;20116;-33
2021/12/12 06:21:40;;;;;;;24.13;10.40;;;6.00;90.60;;;;;;5058077;28;20124;-44
2021/12/12 06:24:07;;;;;;;27.80;12.45;;;6.00;90.50;;;;;;5057971;28;20029;-44
2021/12/12 06:26:34;;;;;;;24.30;9.82;;;5.90;90.50;;;;;;5058212;28;20044;-35
2021/12/12 06:29:00;;;;;;;20.55;10.65;;;5.90;90.50;;;;;;5057879;28;20472;-33
2021/12/12 06:31:26;;;;;;;27.30;11.88;;;5.90;90.50;;;;;;5058133;28;20107;-44
2021/12/12 06:33:55;;;;;;;33.42;10.60;;;5.90;90.60;;;;;;5057609;28;20029;-33
2021/12/12 06:36:21;;;;;;;25.90;10.90;;;5.90;90.60;;;;;;5057756;28;20025;-44
2021/12/12 06:38:51;;;;;;;26.38;11.95;;;5.90;90.60;;;;;;5057819;28;20021;-44
2021/12/12 06:41:19;;;;;;;36.35;10.80;;;5.80;90.50;;;;;;5057947;28;20063;-34
2021/12/12 06:43:45;;;;;;;51.20;12.23;;;5.80;90.60;;;;;;5057133;28;20077;-44
2021/12/12 06:46:12;;;;;;;31.80;12.25;;;5.80;90.60;;;;;;5057990;28;20349;-44
2021/12/12 06:48:39;;;;;;;27.92;11.52;;;5.80;90.50;;;;;;5050478;28;20397;-34
2021/12/12 06:51:06;;;;;;;25.08;11.45;;;5.80;90.60;;;;;;5037430;28;20107;-44
2021/12/12 06:53:36;;;;;;;27.75;11.63;;;5.80;90.50;;;;;;5037096;28;20095;-34
2021/12/12 06:56:03;;;;;;;33.20;12.32;;;5.80;90.50;;;;;;5040612;28;20061;-44
2021/12/12 06:58:33;;;;;;;27.73;12.68;;;5.80;90.50;;;;;;5037450;28;20018;-34
2021/12/12 07:01:09;;;;;;;32.92;12.27;;;5.80;90.50;;;;;;5048302;28;20033;-44
2021/12/12 07:03:37;;;;;;;42.63;13.38;;;5.80;90.50;;;;;;5037516;28;20101;-45
2021/12/12 07:06:04;;;;;;;48.10;15.40;;;5.70;90.40;;;;;;5038012;28;20029;-34
2021/12/12 07:08:30;;;;;;;42.03;14.50;;;5.70;90.30;;;;;;5037621;28;20033;-45
2021/12/12 07:10:56;;;;;;;46.08;17.00;;;5.70;90.30;;;;;;5037607;28;20417;-44
2021/12/12 07:13:23;;;;;;;58.08;18.08;;;5.70;90.40;;;;;;5037280;28;20061;-44
2021/12/12 07:15:53;;;;;;;44.58;18.33;;;5.70;90.50;;;;;;5037385;28;20086;-33
2021/12/12 07:18:21;;;;;;;58.00;26.50;;;5.60;90.50;;;;;;5037245;28;20029;-33
2021/12/12 07:20:49;;;;;;;43.08;17.52;;;5.60;90.50;;;;;;5037190;28;20271;-33
2021/12/12 07:23:15;;;;;;;38.58;15.73;;;5.60;90.40;;;;;;5037048;28;20045;-34
2021/12/12 07:25:44;;;;;;;34.85;15.68;;;5.60;90.40;;;;;;5035907;28;20057;-34
2021/12/12 07:28:10;;;;;;;45.13;18.27;;;5.60;90.40;;;;;;5036922;28;20045;-44
2021/12/12 07:30:36;;;;;;;44.85;16.95;;;5.60;90.60;;;;;;5048380;28;20040;-43
2021/12/12 07:33:04;;;;;;;36.05;16.88;;;5.60;90.50;;;;;;5037097;28;20035;-43
2021/12/12 07:35:33;;;;;;;47.85;17.63;;;5.60;90.50;;;;;;5036768;28;20128;-36
2021/12/12 07:38:00;;;;;;;45.05;18.83;;;5.60;90.60;;;;;;5036914;28;20033;-33
2021/12/12 07:40:26;;;;;;;43.47;18.33;;;5.60;90.60;;;;;;5036829;28;20040;-43
2021/12/12 07:42:52;;;;;;;56.38;19.67;;;5.60;90.80;;;;;;5036765;28;20037;-32
2021/12/12 07:45:23;;;;;;;56.17;20.90;;;5.70;90.70;;;;;;5035395;28;20033;-33
2021/12/12 07:47:51;;;;;;;58.78;21.40;;;5.70;90.70;;;;;;5036948;28;20307;-35
2021/12/12 07:50:20;;;;;;;63.20;21.70;;;5.70;90.60;;;;;;5036180;28;20288;-43
2021/12/12 07:52:47;;;;;;;74.63;21.10;;;5.70;90.60;;;;;;5036770;28;20079;-36
2021/12/12 07:55:13;;;;;;;52.55;21.45;;;5.70;90.60;;;;;;5035900;28;20117;-44
2021/12/12 07:57:39;;;;;;;60.53;21.33;;;5.70;90.50;;;;;;5036663;28;20075;-34
2021/12/12 08:00:26;;;;;;;57.90;20.98;;;5.70;90.40;;;;;;5036328;28;20052;-34
2021/12/12 08:02:54;;;;;;;54.15;20.45;;;5.70;90.30;;;;;;5036182;28;20080;-45
2021/12/12 08:05:28;;;;;;;52.17;20.88;;;5.70;90.40;;;;;;5036322;28;20137;-44
2021/12/12 08:07:58;;;;;;;55.97;19.00;;;5.70;90.40;;;;;;5036018;28;20061;-44
2021/12/12 08:10:24;;;;;;;41.80;18.58;;;5.70;90.30;;;;;;5035944;28;20472;-44
2021/12/12 08:12:50;;;;;;;43.92;18.30;;;5.60;90.30;;;;;;5036013;28;20057;-43
2021/12/12 08:15:17;;;;;;;37.60;18.50;;;5.70;90.30;;;;;;5035570;28;20414;-44
2021/12/12 08:17:43;;;;;;;49.10;18.60;;;5.70;90.40;;;;;;5035910;28;20047;-45
2021/12/12 08:20:13;;;;;;;39.50;17.05;;;5.70;90.40;;;;;;5036200;28;20404;-43
2021/12/12 08:22:39;;;;;;;50.05;21.08;;;5.60;90.30;;;;;;5035804;28;20117;-44
2021/12/12 08:25:08;;;;;;;35.17;19.23;;;5.70;90.30;;;;;;5036152;28;20045;-43
2021/12/12 08:27:34;;;;;;;49.35;20.13;;;5.60;90.30;;;;;;5035877;28;20045;-44
2021/12/12 08:30:00;;;;;;;39.85;21.27;;;5.60;90.20;;;;;;5035767;28;20109;-34
2021/12/12 08:32:26;;;;;;;41.30;21.35;;;5.60;90.20;;;;;;5035837;28;20349;-43
2021/12/12 08:34:53;;;;;;;38.88;18.15;;;5.60;90.30;;;;;;5035711;28;20351;-44
2021/12/12 08:37:19;;;;;;;42.85;17.98;;;5.60;90.20;;;;;;5035582;28;20024;-44
2021/12/12 08:39:45;;;;;;;55.25;15.45;;;5.60;90.20;;;;;;5035822;28;20029;-44
2021/12/12 08:42:13;;;;;;;42.10;15.05;;;5.60;90.20;;;;;;5035435;28;20444;-45
2021/12/12 08:44:39;;;;;;;65.95;16.45;;;5.60;90.10;;;;;;5035510;28;20043;-38
2021/12/12 08:47:09;;;;;;;36.05;15.23;;;5.60;90.00;;;;;;5045636;28;20079;-45
2021/12/12 08:49:38;;;;;;;50.78;20.35;;;5.60;90.00;;;;;;5036074;28;20060;-33
2021/12/12 08:52:14;;;;;;;36.25;14.50;;;5.60;90.10;;;;;;5035907;28;20037;-33
2021/12/12 08:54:42;;;;;;;33.35;11.68;;;5.60;90.00;;;;;;5035361;28;20060;-43
2021/12/12 08:57:20;;;;;;;65.75;12.68;;;5.60;90.10;;;;;;5035624;28;20044;-44
2021/12/12 08:59:48;;;;;;;102.45;25.08;;;5.60;90.10;;;;;;5035520;28;20034;-44
2021/12/12 09:02:18;;;;;;;127.03;30.40;;;5.60;89.70;;;;;;5035722;28;20029;-44
2021/12/12 09:04:52;;;;;;;200.73;52.30;;;5.50;89.60;;;;;;5035304;28;20029;-33
2021/12/12 09:07:27;;;;;;;95.13;23.48;;;5.50;89.70;;;;;;5035852;28;20414;-33
2021/12/12 09:10:07;;;;;;;113.28;27.08;;;5.50;89.60;;;;;;5035574;28;20430;-44
2021/12/12 09:13:04;;;;;;;135.30;33.88;;;5.50;89.90;;;;;;5035569;28;20088;-34
2021/12/12 09:15:41;;;;;;;125.93;30.33;;;5.50;89.90;;;;;;5035337;28;20069;-44
2021/12/12 09:18:16;;;;;;;137.82;40.40;;;5.40;89.70;;;;;;5035507;28;20352;-44
2021/12/12 09:21:14;;;;;;;65.72;21.33;;;5.40;89.70;;;;;;5034890;28;20041;-36
2021/12/12 09:23:44;;;;;;;83.28;30.13;;;5.40;89.20;;;;;;5035097;28;20092;-37
2021/12/12 09:26:21;;;;;;;144.40;52.47;;;5.40;89.10;;;;;;5035303;28;20091;-34
2021/12/12 09:29:05;;;;;;;53.75;22.88;;;5.40;89.50;;;;;;5035086;28;20030;-35
2021/12/12 09:31:40;;;;;;;32.83;15.75;;;5.30;89.30;;;;;;5035157;28;20032;-33
2021/12/12 09:34:16;;;;;;;49.33;18.88;;;5.30;89.20;;;;;;5046026;28;20389;-44
2021/12/12 09:36:56;;;;;;;78.85;31.05;;;5.30;89.60;;;;;;5035325;28;20410;-36
2021/12/12 09:39:45;;;;;;;31.03;15.47;;;5.30;89.50;;;;;;5035030;28;20033;-32
2021/12/12 09:42:51;;;;;;;31.20;18.25;;;5.30;89.50;;;;;;5032471;28;20299;-44
2021/12/12 09:45:27;;;;;;;99.85;44.53;;;5.20;89.10;;;;;;5035189;28;20378;-33
2021/12/12 09:51:27;;;;;;;28.77;16.35;;;5.20;89.10;;;;;;5038290;28;20108;-46
2021/12/12 09:54:14;;;;;;;47.08;25.05;;;5.20;88.60;;;;;;5038369;28;20044;-35
2021/12/12 09:56:56;;;;;;;58.65;26.20;;;5.10;89.00;;;;;;5038775;28;20029;-43
2021/12/12 09:59:39;;;;;;;61.65;27.92;;;5.10;89.10;;;;;;5038401;28;20041;-44
2021/12/12 10:02:14;;;;;;;60.13;33.03;;;5.10;89.30;;;;;;5038792;28;20037;-44
2021/12/12 10:05:14;;;;;;;38.88;21.77;;;5.10;89.20;;;;;;5038023;28;20029;-32
2021/12/12 10:07:54;;;;;;;34.25;17.60;;;5.10;89.30;;;;;;5038335;28;20589;-44
2021/12/12 10:10:31;;;;;;;30.03;17.60;;;5.10;89.00;;;;;;5038499;28;20272;-44
2021/12/12 10:13:30;;;;;;;35.17;19.58;;;5.10;89.00;;;;;;5038379;28;20026;-44
2021/12/12 10:16:01;;;;;;;52.53;18.50;;;5.10;88.80;;;;;;5038120;28;20227;-33
2021/12/12 10:18:55;;;;;;;35.97;16.85;;;5.10;88.80;;;;;;5038042;28;20037;-44
2021/12/12 10:21:57;;;;;;;39.40;19.45;;;5.10;88.60;;;;;;5038295;28;20055;-33
2021/12/12 10:24:31;;;;;;;38.47;19.88;;;5.10;88.60;;;;;;5038173;28;20101;-33
2021/12/12 10:27:40;;;;;;;36.55;18.77;;;5.00;88.80;;;;;;5038369;28;20386;-44
2021/12/12 10:30:29;;;;;;;61.63;22.65;;;5.00;88.80;;;;;;5037992;28;20064;-44
2021/12/12 10:33:03;;;;;;;50.28;17.42;;;5.00;88.70;;;;;;5037471;28;20037;-44
2021/12/12 10:35:42;;;;;;;43.30;22.20;;;5.00;88.60;;;;;;5037585;28;20402;-32
2021/12/12 10:38:18;;;;;;;41.00;22.83;;;5.00;88.70;;;;;;5037915;28;20449;-33
2021/12/12 10:40:50;;;;;;;44.38;22.05;;;5.00;89.10;;;;;;5037953;28;20017;-44
2021/12/12 10:43:24;;;;;;;42.03;19.92;;;5.00;89.30;;;;;;5039841;28;20025;-34
2021/12/12 10:45:58;;;;;;;34.92;16.92;;;5.00;89.10;;;;;;5049679;28;20029;-44
2021/12/12 10:48:32;;;;;;;29.88;16.38;;;5.00;89.00;;;;;;5057566;28;20112;-44
2021/12/12 10:51:11;;;;;;;63.30;34.70;;;5.00;88.80;;;;;;5057404;28;20059;-44
2021/12/12 10:54:03;;;;;;;49.47;25.45;;;5.00;88.40;;;;;;5056933;28;20021;-34
2021/12/12 10:56:39;;;;;;;41.88;23.42;;;5.00;88.40;;;;;;5057227;28;20045;-44
2021/12/12 10:59:14;;;;;;;40.22;18.70;;;5.00;88.20;;;;;;5057053;28;20041;-33
2021/12/12 11:01:44;;;;;;;49.90;20.02;;;5.00;88.00;;;;;;5048190;28;20029;-32
2021/12/12 11:04:32;;;;;;;52.40;19.20;;;5.00;88.10;;;;;;5037575;28;20052;-33
2021/12/12 11:07:04;;;;;;;37.40;18.33;;;5.00;88.40;;;;;;5037265;28;20018;-39
2021/12/12 11:09:34;;;;;;;40.63;19.55;;;5.00;88.20;;;;;;5037181;28;20034;-33
2021/12/12 11:12:03;;;;;;;43.30;17.98;;;4.90;88.30;;;;;;5037394;28;20397;-33
2021/12/12 11:14:35;;;;;;;37.78;18.65;;;4.90;88.10;;;;;;5036764;28;20430;-44
2021/12/12 11:17:15;;;;;;;39.30;17.10;;;4.90;88.00;;;;;;5035874;28;20018;-33
2021/12/12 11:19:48;;;;;;;38.15;17.38;;;4.90;87.80;;;;;;5036704;28;20037;-44
2021/12/12 11:22:19;;;;;;;34.20;15.82;;;4.90;87.80;;;;;;5036973;28;20061;-44
2021/12/12 11:24:56;;;;;;;31.42;15.80;;;4.80;87.60;;;;;;5037113;28;20044;-34
2021/12/12 11:27:40;;;;;;;31.13;15.85;;;4.80;87.60;;;;;;5037256;28;20075;-33
2021/12/12 11:30:21;;;;;;;35.50;16.98;;;4.70;87.50;;;;;;5035382;28;20037;-33
2021/12/12 11:32:50;;;;;;;33.45;16.38;;;4.70;87.60;;;;;;5036711;28;20036;-33
2021/12/12 11:35:19;;;;;;;37.10;15.73;;;4.70;87.70;;;;;;5044900;28;20033;-33
2021/12/12 11:38:16;;;;;;;37.78;17.33;;;4.70;88.10;;;;;;5056415;28;20040;-44
2021/12/12 11:40:59;;;;;;;26.75;14.10;;;4.70;88.00;;;;;;5055902;28;20136;-44
2021/12/12 11:43:48;;;;;;;35.35;16.00;;;4.70;87.80;;;;;;5056787;28;20017;-34
2021/12/12 11:46:54;;;;;;;38.28;16.85;;;4.70;87.40;;;;;;5056558;28;20443;-44
2021/12/12 11:49:23;;;;;;;42.55;17.33;;;4.60;87.40;;;;;;5053687;28;20041;-44
2021/12/12 11:51:54;;;;;;;42.15;17.90;;;4.50;87.60;;;;;;5056323;28;20405;-33
2021/12/12 11:54:19;;;;;;;48.35;22.33;;;4.50;87.90;;;;;;5056271;28;20041;-44
2021/12/12 11:56:54;;;;;;;42.15;19.92;;;4.50;88.10;;;;;;5056206;28;20045;-32
2021/12/12 12:00:05;;;;;;;42.05;20.23;;;4.50;88.10;;;;;;5056221;28;20074;-44
2021/12/12 12:03:27;;;;;;;42.65;18.77;;;4.50;88.30;;;;;;5054008;28;20067;-44
2021/12/12 12:05:52;;;;;;;38.05;18.15;;;4.50;88.30;;;;;;5022040;28;20045;-34
2021/12/12 12:08:39;;;;;;;41.03;18.52;;;4.50;88.30;;;;;;5036176;28;20026;-45
2021/12/12 12:11:46;;;;;;;48.00;19.25;;;4.50;88.50;;;;;;5035825;28;20042;-44
2021/12/12 12:14:33;;;;;;;43.78;19.42;;;4.50;87.90;;;;;;5035435;28;20051;-33
2021/12/12 12:17:14;;;;;;;42.55;19.23;;;4.50;88.20;;;;;;5046796;28;20036;-44
2021/12/12 12:19:55;;;;;;;39.70;19.00;;;4.40;88.00;;;;;;5035458;28;20480;-33
2021/12/12 12:22:58;;;;;;;45.38;19.65;;;4.40;88.10;;;;;;5036203;28;20441;-35
2021/12/12 12:29:21;;;;;;;42.80;18.42;;;4.40;87.70;;;;;;5035956;28;20048;-32
2021/12/12 12:32:11;;;;;;;38.40;17.17;;;4.40;87.70;;;;;;5033230;28;20072;-34
2021/12/12 12:35:13;;;;;;;41.25;18.55;;;4.30;87.70;;;;;;5033153;28;20029;-44
2021/12/12 12:38:03;;;;;;;48.80;20.85;;;4.30;87.80;;;;;;5035818;28;20030;-33
2021/12/12 12:40:38;;;;;;;37.85;19.05;;;4.30;87.90;;;;;;5035768;28;20021;-33
2021/12/12 12:43:41;;;;;;;38.85;20.13;;;4.30;87.70;;;;;;5035828;28;20039;-44
2021/12/12 12:46:37;;;;;;;46.72;21.20;;;4.30;87.60;;;;;;5034292;28;20329;-44
2021/12/12 12:49:51;;;;;;;64.57;21.88;;;4.30;87.80;;;;;;5035325;28;20022;-44
2021/12/12 12:52:46;;;;;;;51.05;22.42;;;4.30;87.90;;;;;;5035017;28;20065;-46
2021/12/12 12:55:49;;;;;;;53.65;23.55;;;4.20;88.10;;;;;;5034668;28;20042;-47
2021/12/12 12:58:24;;;;;;;55.30;23.25;;;4.30;88.20;;;;;;5048136;28;20322;-36
2021/12/12 13:01:02;;;;;;;56.88;25.45;;;4.20;88.40;;;;;;5055782;28;20079;-35
2021/12/12 13:03:32;;;;;;;50.47;21.50;;;4.30;88.00;;;;;;5051116;28;20083;-32
2021/12/12 13:06:00;;;;;;;46.53;23.03;;;4.20;88.00;;;;;;5039112;28;20044;-33
2021/12/12 13:08:32;;;;;;;52.95;23.45;;;4.20;88.20;;;;;;5036148;28;20088;-35
2021/12/12 13:11:05;;;;;;;54.15;23.83;;;4.20;88.00;;;;;;5033915;28;20099;-43
2021/12/12 13:13:36;;;;;;;54.53;25.35;;;4.20;87.80;;;;;;5034049;28;20034;-44
2021/12/12 13:16:10;;;;;;;52.60;21.83;;;4.20;88.00;;;;;;5033475;28;20091;-44
2021/12/12 13:18:57;;;;;;;54.53;23.38;;;4.20;88.00;;;;;;5033368;28;20068;-33
2021/12/12 13:21:48;;;;;;;51.75;24.15;;;4.20;87.80;;;;;;5034229;28;20060;-44
2021/12/12 13:24:53;;;;;;;59.45;24.65;;;4.20;87.50;;;;;;5036206;28;20075;-44
2021/12/12 13:30:41;;;;;;;96.38;46.45;;;4.20;87.50;;;;;;5037535;28;20036;-44
2021/12/12 13:33:31;;;;;;;48.88;23.92;;;4.20;87.70;;;;;;5037431;28;20037;-33
2021/12/12 13:36:20;;;;;;;62.42;27.40;;;4.20;87.70;;;;;;5036664;28;20033;-34
2021/12/12 13:39:16;;;;;;;77.78;37.78;;;4.20;87.70;;;;;;5038205;28;20115;-33